sensor_id;sensor_type;location;lat;lon;timestamp;pressure;altitude;pressure_sealevel;temperature
41940;BMP180;23057;48.554;14.454;2023-06-24T00:00:04;94322.00;;;21.10
41940;BMP180;23057;48.554;14.454;2023-06-24T00:02:42;94313.00;;;21.10
41940;BMP180;23057;48.554;14.454;2023-06-24T00:05:15;94304.00;;;21.00
41940;BMP180;23057;48.554;14.454;2023-06-24T00:07:47;94301.00;;;21.00
41940;BMP180;23057;48.554;14.454;2023-06-24T00:10:17;94297.00;;;20.90
41940;BMP180;23057;48.554;14.454;2023-06-24T00:12:48;94302.00;;;20.90
41940;BMP180;23057;48.554;14.454;2023-06-24T00:15:19;94315.00;;;20.80
41940;BMP180;23057;48.554;14.454;2023-06-24T00:17:49;94317.00;;;20.80
41940;BMP180;23057;48.554;14.454;2023-06-24T00:20:20;94313.00;;;20.70
41940;BMP180;23057;48.554;14.454;2023-06-24T00:22:51;94320.00;;;20.70
41940;BMP180;23057;48.554;14.454;2023-06-24T00:25:22;94321.00;;;20.70
41940;BMP180;23057;48.554;14.454;2023-06-24T00:27:53;94324.00;;;20.70
41940;BMP180;23057;48.554;14.454;2023-06-24T00:30:23;94327.00;;;20.70
41940;BMP180;23057;48.554;14.454;2023-06-24T00:32:54;94329.00;;;20.70
41940;BMP180;23057;48.554;14.454;2023-06-24T00:35:25;94328.00;;;20.70
41940;BMP180;23057;48.554;14.454;2023-06-24T00:37:55;94328.00;;;20.60
41940;BMP180;23057;48.554;14.454;2023-06-24T00:40:28;94323.00;;;20.60
41940;BMP180;23057;48.554;14.454;2023-06-24T00:42:59;94326.00;;;20.60
41940;BMP180;23057;48.554;14.454;2023-06-24T00:45:32;94324.00;;;20.60
41940;BMP180;23057;48.554;14.454;2023-06-24T00:48:02;94316.00;;;20.60
41940;BMP180;23057;48.554;14.454;2023-06-24T00:50:33;94326.00;;;20.60
41940;BMP180;23057;48.554;14.454;2023-06-24T00:53:05;94309.00;;;20.60
41940;BMP180;23057;48.554;14.454;2023-06-24T00:55:36;94310.00;;;20.60
41940;BMP180;23057;48.554;14.454;2023-06-24T00:58:07;94306.00;;;20.60
41940;BMP180;23057;48.554;14.454;2023-06-24T01:00:38;94307.00;;;20.60
41940;BMP180;23057;48.554;14.454;2023-06-24T01:03:10;94309.00;;;20.60
41940;BMP180;23057;48.554;14.454;2023-06-24T01:05:44;94302.00;;;20.60
41940;BMP180;23057;48.554;14.454;2023-06-24T01:08:15;94306.00;;;20.50
41940;BMP180;23057;48.554;14.454;2023-06-24T01:10:46;94312.00;;;20.50
41940;BMP180;23057;48.554;14.454;2023-06-24T01:13:17;94304.00;;;20.50
41940;BMP180;23057;48.554;14.454;2023-06-24T01:15:48;94295.00;;;20.50
41940;BMP180;23057;48.554;14.454;2023-06-24T01:18:26;94303.00;;;20.50
41940;BMP180;23057;48.554;14.454;2023-06-24T01:21:14;94304.00;;;20.50
41940;BMP180;23057;48.554;14.454;2023-06-24T01:32:57;94321.00;;;20.50
41940;BMP180;23057;48.554;14.454;2023-06-24T01:35:33;94330.00;;;20.60
41940;BMP180;23057;48.554;14.454;2023-06-24T01:38:31;94325.00;;;20.60
41940;BMP180;23057;48.554;14.454;2023-06-24T01:41:08;94330.00;;;20.60
41940;BMP180;23057;48.554;14.454;2023-06-24T01:43:43;94333.00;;;20.60
41940;BMP180;23057;48.554;14.454;2023-06-24T01:46:16;94344.00;;;20.60
41940;BMP180;23057;48.554;14.454;2023-06-24T01:48:55;94348.00;;;20.60
41940;BMP180;23057;48.554;14.454;2023-06-24T01:51:32;94355.00;;;20.60
41940;BMP180;23057;48.554;14.454;2023-06-24T01:54:07;94343.00;;;20.60
41940;BMP180;23057;48.554;14.454;2023-06-24T01:56:43;94340.00;;;20.60
41940;BMP180;23057;48.554;14.454;2023-06-24T01:59:16;94353.00;;;20.60
41940;BMP180;23057;48.554;14.454;2023-06-24T02:01:50;94356.00;;;20.60
41940;BMP180;23057;48.554;14.454;2023-06-24T02:04:23;94363.00;;;20.50
41940;BMP180;23057;48.554;14.454;2023-06-24T02:06:59;94358.00;;;20.50
41940;BMP180;23057;48.554;14.454;2023-06-24T02:09:33;94365.00;;;20.50
41940;BMP180;23057;48.554;14.454;2023-06-24T02:12:06;94366.00;;;20.50
41940;BMP180;23057;48.554;14.454;2023-06-24T02:14:40;94369.00;;;20.50
41940;BMP180;23057;48.554;14.454;2023-06-24T02:17:13;94369.00;;;20.50
41940;BMP180;23057;48.554;14.454;2023-06-24T02:19:45;94374.00;;;20.50
41940;BMP180;23057;48.554;14.454;2023-06-24T02:22:20;94373.00;;;20.50
41940;BMP180;23057;48.554;14.454;2023-06-24T02:24:53;94369.00;;;20.50
41940;BMP180;23057;48.554;14.454;2023-06-24T02:27:25;94373.00;;;20.50
41940;BMP180;23057;48.554;14.454;2023-06-24T02:29:57;94374.00;;;20.50
41940;BMP180;23057;48.554;14.454;2023-06-24T02:32:29;94365.00;;;20.50
41940;BMP180;23057;48.554;14.454;2023-06-24T02:35:00;94373.00;;;20.50
41940;BMP180;23057;48.554;14.454;2023-06-24T02:37:30;94365.00;;;20.50
41940;BMP180;23057;48.554;14.454;2023-06-24T02:40:01;94369.00;;;20.50
41940;BMP180;23057;48.554;14.454;2023-06-24T02:42:33;94371.00;;;20.50
41940;BMP180;23057;48.554;14.454;2023-06-24T02:45:05;94371.00;;;20.50
41940;BMP180;23057;48.554;14.454;2023-06-24T02:47:37;94357.00;;;20.50
41940;BMP180;23057;48.554;14.454;2023-06-24T02:50:09;94366.00;;;20.50
41940;BMP180;23057;48.554;14.454;2023-06-24T02:52:41;94368.00;;;20.50
41940;BMP180;23057;48.554;14.454;2023-06-24T02:55:13;94370.00;;;20.50
41940;BMP180;23057;48.554;14.454;2023-06-24T02:57:46;94371.00;;;20.50
41940;BMP180;23057;48.554;14.454;2023-06-24T03:00:17;94373.00;;;20.50
41940;BMP180;23057;48.554;14.454;2023-06-24T03:02:48;94362.00;;;20.50
41940;BMP180;23057;48.554;14.454;2023-06-24T03:05:20;94373.00;;;20.50
41940;BMP180;23057;48.554;14.454;2023-06-24T03:07:56;94377.00;;;20.50
41940;BMP180;23057;48.554;14.454;2023-06-24T03:10:28;94381.00;;;20.50
41940;BMP180;23057;48.554;14.454;2023-06-24T03:12:58;94383.00;;;20.50
41940;BMP180;23057;48.554;14.454;2023-06-24T03:15:29;94383.00;;;20.50
41940;BMP180;23057;48.554;14.454;2023-06-24T03:18:00;94375.00;;;20.50
41940;BMP180;23057;48.554;14.454;2023-06-24T03:20:31;94377.00;;;20.50
41940;BMP180;23057;48.554;14.454;2023-06-24T03:23:09;94382.00;;;20.50
41940;BMP180;23057;48.554;14.454;2023-06-24T03:25:39;94383.00;;;20.50
41940;BMP180;23057;48.554;14.454;2023-06-24T03:28:10;94389.00;;;20.50
41940;BMP180;23057;48.554;14.454;2023-06-24T03:30:41;94397.00;;;20.60
41940;BMP180;23057;48.554;14.454;2023-06-24T03:33:12;94393.00;;;20.50
41940;BMP180;23057;48.554;14.454;2023-06-24T03:35:47;94397.00;;;20.50
41940;BMP180;23057;48.554;14.454;2023-06-24T03:38:18;94396.00;;;20.50
41940;BMP180;23057;48.554;14.454;2023-06-24T03:40:49;94404.00;;;20.50
41940;BMP180;23057;48.554;14.454;2023-06-24T03:43:19;94404.00;;;20.50
41940;BMP180;23057;48.554;14.454;2023-06-24T03:45:50;94401.00;;;20.50
41940;BMP180;23057;48.554;14.454;2023-06-24T03:48:22;94399.00;;;20.40
41940;BMP180;23057;48.554;14.454;2023-06-24T03:50:53;94393.00;;;20.40
41940;BMP180;23057;48.554;14.454;2023-06-24T03:53:24;94395.00;;;20.40
41940;BMP180;23057;48.554;14.454;2023-06-24T03:55:54;94392.00;;;20.40
41940;BMP180;23057;48.554;14.454;2023-06-24T03:58:25;94394.00;;;20.30
41940;BMP180;23057;48.554;14.454;2023-06-24T04:00:58;94405.00;;;20.30
41940;BMP180;23057;48.554;14.454;2023-06-24T04:03:30;94402.00;;;20.30
41940;BMP180;23057;48.554;14.454;2023-06-24T04:06:02;94413.00;;;20.30
41940;BMP180;23057;48.554;14.454;2023-06-24T04:08:33;94414.00;;;20.20
41940;BMP180;23057;48.554;14.454;2023-06-24T04:11:03;94417.00;;;20.30
41940;BMP180;23057;48.554;14.454;2023-06-24T04:13:34;94416.00;;;20.30
41940;BMP180;23057;48.554;14.454;2023-06-24T04:16:05;94421.00;;;20.20
41940;BMP180;23057;48.554;14.454;2023-06-24T04:18:36;94434.00;;;20.20
41940;BMP180;23057;48.554;14.454;2023-06-24T04:21:09;94432.00;;;20.20
41940;BMP180;23057;48.554;14.454;2023-06-24T04:23:40;94428.00;;;20.20
41940;BMP180;23057;48.554;14.454;2023-06-24T04:26:11;94432.00;;;20.20
41940;BMP180;23057;48.554;14.454;2023-06-24T04:28:42;94437.00;;;20.20
41940;BMP180;23057;48.554;14.454;2023-06-24T04:31:12;94443.00;;;20.20
41940;BMP180;23057;48.554;14.454;2023-06-24T04:33:43;94449.00;;;20.10
41940;BMP180;23057;48.554;14.454;2023-06-24T04:36:14;94443.00;;;20.10
41940;BMP180;23057;48.554;14.454;2023-06-24T04:38:45;94440.00;;;20.10
41940;BMP180;23057;48.554;14.454;2023-06-24T04:41:15;94444.00;;;20.10
41940;BMP180;23057;48.554;14.454;2023-06-24T04:43:46;94442.00;;;20.10
41940;BMP180;23057;48.554;14.454;2023-06-24T04:46:17;94438.00;;;20.10
41940;BMP180;23057;48.554;14.454;2023-06-24T04:48:47;94447.00;;;20.10
41940;BMP180;23057;48.554;14.454;2023-06-24T04:51:18;94449.00;;;20.10
41940;BMP180;23057;48.554;14.454;2023-06-24T04:53:49;94453.00;;;20.10
41940;BMP180;23057;48.554;14.454;2023-06-24T04:56:20;94456.00;;;20.10
41940;BMP180;23057;48.554;14.454;2023-06-24T04:58:50;94458.00;;;20.10
41940;BMP180;23057;48.554;14.454;2023-06-24T05:01:22;94458.00;;;20.10
41940;BMP180;23057;48.554;14.454;2023-06-24T05:03:53;94462.00;;;20.10
41940;BMP180;23057;48.554;14.454;2023-06-24T05:06:23;94462.00;;;20.20
41940;BMP180;23057;48.554;14.454;2023-06-24T05:08:54;94461.00;;;20.20
41940;BMP180;23057;48.554;14.454;2023-06-24T05:11:25;94464.00;;;20.20
41940;BMP180;23057;48.554;14.454;2023-06-24T05:13:56;94470.00;;;20.20
41940;BMP180;23057;48.554;14.454;2023-06-24T05:16:28;94457.00;;;20.20
41940;BMP180;23057;48.554;14.454;2023-06-24T05:18:58;94467.00;;;20.20
41940;BMP180;23057;48.554;14.454;2023-06-24T05:21:29;94468.00;;;20.20
41940;BMP180;23057;48.554;14.454;2023-06-24T05:24:00;94470.00;;;20.20
41940;BMP180;23057;48.554;14.454;2023-06-24T05:26:30;94474.00;;;20.20
41940;BMP180;23057;48.554;14.454;2023-06-24T05:29:01;94473.00;;;20.20
41940;BMP180;23057;48.554;14.454;2023-06-24T05:31:32;94464.00;;;20.20
41940;BMP180;23057;48.554;14.454;2023-06-24T05:34:02;94482.00;;;20.30
41940;BMP180;23057;48.554;14.454;2023-06-24T05:36:34;94465.00;;;20.30
41940;BMP180;23057;48.554;14.454;2023-06-24T05:39:05;94470.00;;;20.30
41940;BMP180;23057;48.554;14.454;2023-06-24T05:41:38;94472.00;;;20.30
41940;BMP180;23057;48.554;14.454;2023-06-24T05:44:09;94484.00;;;20.30
41940;BMP180;23057;48.554;14.454;2023-06-24T05:46:41;94483.00;;;20.30
41940;BMP180;23057;48.554;14.454;2023-06-24T05:49:14;94493.00;;;20.30
41940;BMP180;23057;48.554;14.454;2023-06-24T05:51:48;94500.00;;;20.30
41940;BMP180;23057;48.554;14.454;2023-06-24T05:54:19;94493.00;;;20.30
41940;BMP180;23057;48.554;14.454;2023-06-24T05:56:50;94501.00;;;20.40
41940;BMP180;23057;48.554;14.454;2023-06-24T05:59:20;94497.00;;;20.40
41940;BMP180;23057;48.554;14.454;2023-06-24T06:01:51;94497.00;;;20.40
41940;BMP180;23057;48.554;14.454;2023-06-24T06:04:22;94510.00;;;20.40
41940;BMP180;23057;48.554;14.454;2023-06-24T06:06:53;94509.00;;;20.50
41940;BMP180;23057;48.554;14.454;2023-06-24T06:09:23;94514.00;;;20.50
41940;BMP180;23057;48.554;14.454;2023-06-24T06:11:54;94511.00;;;20.50
41940;BMP180;23057;48.554;14.454;2023-06-24T06:14:25;94507.00;;;20.50
41940;BMP180;23057;48.554;14.454;2023-06-24T06:16:55;94515.00;;;20.50
41940;BMP180;23057;48.554;14.454;2023-06-24T06:19:26;94513.00;;;20.50
41940;BMP180;23057;48.554;14.454;2023-06-24T06:21:57;94520.00;;;20.50
41940;BMP180;23057;48.554;14.454;2023-06-24T06:24:27;94518.00;;;20.50
41940;BMP180;23057;48.554;14.454;2023-06-24T06:26:58;94516.00;;;20.50
41940;BMP180;23057;48.554;14.454;2023-06-24T06:29:29;94519.00;;;20.50
41940;BMP180;23057;48.554;14.454;2023-06-24T06:32:00;94513.00;;;20.50
41940;BMP180;23057;48.554;14.454;2023-06-24T06:34:31;94517.00;;;20.60
41940;BMP180;23057;48.554;14.454;2023-06-24T06:37:02;94524.00;;;20.60
41940;BMP180;23057;48.554;14.454;2023-06-24T06:39:33;94517.00;;;20.60
41940;BMP180;23057;48.554;14.454;2023-06-24T06:42:04;94522.00;;;20.70
41940;BMP180;23057;48.554;14.454;2023-06-24T06:44:34;94526.00;;;20.70
41940;BMP180;23057;48.554;14.454;2023-06-24T06:47:06;94525.00;;;20.70
41940;BMP180;23057;48.554;14.454;2023-06-24T06:49:37;94531.00;;;20.80
41940;BMP180;23057;48.554;14.454;2023-06-24T06:52:08;94524.00;;;20.80
41940;BMP180;23057;48.554;14.454;2023-06-24T06:54:38;94524.00;;;20.90
41940;BMP180;23057;48.554;14.454;2023-06-24T06:57:09;94524.00;;;21.00
41940;BMP180;23057;48.554;14.454;2023-06-24T06:59:40;94532.00;;;21.00
41940;BMP180;23057;48.554;14.454;2023-06-24T07:02:10;94532.00;;;21.00
41940;BMP180;23057;48.554;14.454;2023-06-24T07:04:41;94529.00;;;21.10
41940;BMP180;23057;48.554;14.454;2023-06-24T07:07:12;94537.00;;;21.10
41940;BMP180;23057;48.554;14.454;2023-06-24T07:09:43;94528.00;;;21.10
41940;BMP180;23057;48.554;14.454;2023-06-24T07:12:14;94530.00;;;21.10
41940;BMP180;23057;48.554;14.454;2023-06-24T07:14:44;94531.00;;;21.10
41940;BMP180;23057;48.554;14.454;2023-06-24T07:17:15;94533.00;;;21.10
41940;BMP180;23057;48.554;14.454;2023-06-24T07:19:46;94525.00;;;21.10
41940;BMP180;23057;48.554;14.454;2023-06-24T07:22:16;94531.00;;;21.10
41940;BMP180;23057;48.554;14.454;2023-06-24T07:24:47;94530.00;;;21.20
41940;BMP180;23057;48.554;14.454;2023-06-24T07:27:18;94528.00;;;21.20
41940;BMP180;23057;48.554;14.454;2023-06-24T07:29:49;94522.00;;;21.20
41940;BMP180;23057;48.554;14.454;2023-06-24T07:32:19;94531.00;;;21.20
41940;BMP180;23057;48.554;14.454;2023-06-24T07:34:50;94539.00;;;21.30
41940;BMP180;23057;48.554;14.454;2023-06-24T07:37:21;94538.00;;;21.30
41940;BMP180;23057;48.554;14.454;2023-06-24T07:39:51;94537.00;;;21.30
41940;BMP180;23057;48.554;14.454;2023-06-24T07:42:22;94543.00;;;21.30
41940;BMP180;23057;48.554;14.454;2023-06-24T07:44:53;94534.00;;;21.40
41940;BMP180;23057;48.554;14.454;2023-06-24T07:47:24;94540.00;;;21.40
41940;BMP180;23057;48.554;14.454;2023-06-24T07:49:54;94536.00;;;21.40
41940;BMP180;23057;48.554;14.454;2023-06-24T07:52:25;94545.00;;;21.50
41940;BMP180;23057;48.554;14.454;2023-06-24T07:54:56;94541.00;;;21.50
41940;BMP180;23057;48.554;14.454;2023-06-24T07:57:27;94547.00;;;21.60
41940;BMP180;23057;48.554;14.454;2023-06-24T07:59:58;94556.00;;;21.70
41940;BMP180;23057;48.554;14.454;2023-06-24T08:02:29;94553.00;;;21.80
41940;BMP180;23057;48.554;14.454;2023-06-24T08:04:59;94558.00;;;21.90
41940;BMP180;23057;48.554;14.454;2023-06-24T08:07:30;94557.00;;;22.00
41940;BMP180;23057;48.554;14.454;2023-06-24T08:10:01;94550.00;;;22.10
41940;BMP180;23057;48.554;14.454;2023-06-24T08:12:32;94551.00;;;22.10
41940;BMP180;23057;48.554;14.454;2023-06-24T08:15:03;94561.00;;;22.20
41940;BMP180;23057;48.554;14.454;2023-06-24T08:17:34;94564.00;;;22.40
41940;BMP180;23057;48.554;14.454;2023-06-24T08:20:05;94563.00;;;22.50
41940;BMP180;23057;48.554;14.454;2023-06-24T08:22:36;94566.00;;;22.60
41940;BMP180;23057;48.554;14.454;2023-06-24T08:25:07;94555.00;;;22.80
41940;BMP180;23057;48.554;14.454;2023-06-24T08:27:38;94566.00;;;22.80
41940;BMP180;23057;48.554;14.454;2023-06-24T08:30:09;94558.00;;;22.90
41940;BMP180;23057;48.554;14.454;2023-06-24T08:32:41;94565.00;;;22.90
41940;BMP180;23057;48.554;14.454;2023-06-24T08:35:12;94568.00;;;23.00
41940;BMP180;23057;48.554;14.454;2023-06-24T08:37:43;94572.00;;;23.00
41940;BMP180;23057;48.554;14.454;2023-06-24T08:40:14;94567.00;;;23.10
41940;BMP180;23057;48.554;14.454;2023-06-24T08:42:44;94574.00;;;23.20
41940;BMP180;23057;48.554;14.454;2023-06-24T08:45:15;94576.00;;;23.30
41940;BMP180;23057;48.554;14.454;2023-06-24T08:47:47;94580.00;;;23.30
41940;BMP180;23057;48.554;14.454;2023-06-24T08:50:23;94580.00;;;23.40
41940;BMP180;23057;48.554;14.454;2023-06-24T08:52:57;94584.00;;;23.50
41940;BMP180;23057;48.554;14.454;2023-06-24T08:55:32;94583.00;;;23.50
41940;BMP180;23057;48.554;14.454;2023-06-24T08:58:10;94592.00;;;23.60
41940;BMP180;23057;48.554;14.454;2023-06-24T09:00:41;94596.00;;;23.70
41940;BMP180;23057;48.554;14.454;2023-06-24T09:03:13;94598.00;;;23.70
41940;BMP180;23057;48.554;14.454;2023-06-24T09:05:44;94595.00;;;23.80
41940;BMP180;23057;48.554;14.454;2023-06-24T09:08:15;94594.00;;;23.80
41940;BMP180;23057;48.554;14.454;2023-06-24T09:10:55;94602.00;;;23.90
41940;BMP180;23057;48.554;14.454;2023-06-24T09:13:44;94604.00;;;23.90
41940;BMP180;23057;48.554;14.454;2023-06-24T09:16:15;94604.00;;;23.90
41940;BMP180;23057;48.554;14.454;2023-06-24T09:18:50;94607.00;;;23.90
41940;BMP180;23057;48.554;14.454;2023-06-24T09:21:26;94603.00;;;23.90
41940;BMP180;23057;48.554;14.454;2023-06-24T09:23:58;94610.00;;;23.90
41940;BMP180;23057;48.554;14.454;2023-06-24T09:26:29;94610.00;;;23.90
41940;BMP180;23057;48.554;14.454;2023-06-24T09:29:00;94608.00;;;23.80
41940;BMP180;23057;48.554;14.454;2023-06-24T09:31:31;94620.00;;;23.80
41940;BMP180;23057;48.554;14.454;2023-06-24T09:34:02;94614.00;;;23.70
41940;BMP180;23057;48.554;14.454;2023-06-24T09:36:33;94626.00;;;23.70
41940;BMP180;23057;48.554;14.454;2023-06-24T09:39:07;94628.00;;;23.70
41940;BMP180;23057;48.554;14.454;2023-06-24T09:41:42;94620.00;;;23.60
41940;BMP180;23057;48.554;14.454;2023-06-24T09:44:13;94623.00;;;23.60
41940;BMP180;23057;48.554;14.454;2023-06-24T09:46:44;94628.00;;;23.50
41940;BMP180;23057;48.554;14.454;2023-06-24T09:49:15;94628.00;;;23.50
41940;BMP180;23057;48.554;14.454;2023-06-24T09:51:47;94631.00;;;23.50
41940;BMP180;23057;48.554;14.454;2023-06-24T09:54:20;94625.00;;;23.40
41940;BMP180;23057;48.554;14.454;2023-06-24T09:56:53;94624.00;;;23.40
41940;BMP180;23057;48.554;14.454;2023-06-24T09:59:25;94626.00;;;23.40
41940;BMP180;23057;48.554;14.454;2023-06-24T10:01:57;94624.00;;;23.40
41940;BMP180;23057;48.554;14.454;2023-06-24T10:04:29;94629.00;;;23.30
41940;BMP180;23057;48.554;14.454;2023-06-24T10:07:01;94631.00;;;23.20
41940;BMP180;23057;48.554;14.454;2023-06-24T10:09:32;94634.00;;;23.20
41940;BMP180;23057;48.554;14.454;2023-06-24T10:12:03;94628.00;;;23.20
41940;BMP180;23057;48.554;14.454;2023-06-24T10:14:34;94629.00;;;23.20
41940;BMP180;23057;48.554;14.454;2023-06-24T10:17:06;94628.00;;;23.10
41940;BMP180;23057;48.554;14.454;2023-06-24T10:19:40;94634.00;;;23.10
41940;BMP180;23057;48.554;14.454;2023-06-24T10:22:12;94634.00;;;23.00
41940;BMP180;23057;48.554;14.454;2023-06-24T10:24:46;94631.00;;;23.00
41940;BMP180;23057;48.554;14.454;2023-06-24T10:27:19;94626.00;;;22.90
41940;BMP180;23057;48.554;14.454;2023-06-24T10:29:54;94622.00;;;22.90
41940;BMP180;23057;48.554;14.454;2023-06-24T10:32:39;94620.00;;;23.00
41940;BMP180;23057;48.554;14.454;2023-06-24T10:35:26;94621.00;;;23.20
41940;BMP180;23057;48.554;14.454;2023-06-24T10:38:00;94619.00;;;23.20
41940;BMP180;23057;48.554;14.454;2023-06-24T10:40:39;94627.00;;;23.30
41940;BMP180;23057;48.554;14.454;2023-06-24T10:45:56;94618.00;;;23.40
41940;BMP180;23057;48.554;14.454;2023-06-24T10:48:28;94618.00;;;23.50
41940;BMP180;23057;48.554;14.454;2023-06-24T10:50:59;94619.00;;;23.50
41940;BMP180;23057;48.554;14.454;2023-06-24T10:53:30;94619.00;;;23.50
41940;BMP180;23057;48.554;14.454;2023-06-24T10:56:01;94615.00;;;23.50
41940;BMP180;23057;48.554;14.454;2023-06-24T10:58:32;94619.00;;;23.50
41940;BMP180;23057;48.554;14.454;2023-06-24T11:01:07;94609.00;;;23.60
41940;BMP180;23057;48.554;14.454;2023-06-24T11:03:39;94616.00;;;23.60
41940;BMP180;23057;48.554;14.454;2023-06-24T11:06:11;94598.00;;;23.60
41940;BMP180;23057;48.554;14.454;2023-06-24T11:08:45;94596.00;;;23.60
41940;BMP180;23057;48.554;14.454;2023-06-24T11:11:19;94592.00;;;23.60
41940;BMP180;23057;48.554;14.454;2023-06-24T11:13:52;94591.00;;;23.70
41940;BMP180;23057;48.554;14.454;2023-06-24T11:16:24;94596.00;;;23.70
41940;BMP180;23057;48.554;14.454;2023-06-24T11:18:55;94592.00;;;23.70
41940;BMP180;23057;48.554;14.454;2023-06-24T11:21:30;94588.00;;;23.70
41940;BMP180;23057;48.554;14.454;2023-06-24T11:24:04;94580.00;;;23.80
41940;BMP180;23057;48.554;14.454;2023-06-24T11:26:36;94571.00;;;23.90
41940;BMP180;23057;48.554;14.454;2023-06-24T11:29:10;94577.00;;;24.00
41940;BMP180;23057;48.554;14.454;2023-06-24T11:31:41;94574.00;;;24.10
41940;BMP180;23057;48.554;14.454;2023-06-24T11:34:12;94583.00;;;24.10
41940;BMP180;23057;48.554;14.454;2023-06-24T11:36:43;94578.00;;;24.20
41940;BMP180;23057;48.554;14.454;2023-06-24T11:39:22;94579.00;;;24.20
41940;BMP180;23057;48.554;14.454;2023-06-24T11:41:57;94574.00;;;24.20
41940;BMP180;23057;48.554;14.454;2023-06-24T11:44:31;94576.00;;;24.30
41940;BMP180;23057;48.554;14.454;2023-06-24T11:47:05;94580.00;;;24.30
41940;BMP180;23057;48.554;14.454;2023-06-24T11:49:55;94575.00;;;24.20
41940;BMP180;23057;48.554;14.454;2023-06-24T11:52:44;94575.00;;;24.20
41940;BMP180;23057;48.554;14.454;2023-06-24T11:58:02;94559.00;;;24.20
41940;BMP180;23057;48.554;14.454;2023-06-24T12:00:39;94570.00;;;24.20
41940;BMP180;23057;48.554;14.454;2023-06-24T12:03:15;94562.00;;;24.30
41940;BMP180;23057;48.554;14.454;2023-06-24T12:05:47;94553.00;;;24.50
41940;BMP180;23057;48.554;14.454;2023-06-24T12:08:18;94551.00;;;24.60
41940;BMP180;23057;48.554;14.454;2023-06-24T12:10:49;94547.00;;;24.80
41940;BMP180;23057;48.554;14.454;2023-06-24T12:13:19;94560.00;;;25.10
41940;BMP180;23057;48.554;14.454;2023-06-24T12:15:50;94559.00;;;25.20
41940;BMP180;23057;48.554;14.454;2023-06-24T12:18:21;94564.00;;;25.30
41940;BMP180;23057;48.554;14.454;2023-06-24T12:20:51;94551.00;;;25.40
41940;BMP180;23057;48.554;14.454;2023-06-24T12:23:22;94553.00;;;25.40
41940;BMP180;23057;48.554;14.454;2023-06-24T12:25:53;94556.00;;;25.50
41940;BMP180;23057;48.554;14.454;2023-06-24T12:28:23;94562.00;;;25.60
41940;BMP180;23057;48.554;14.454;2023-06-24T12:30:54;94554.00;;;25.60
41940;BMP180;23057;48.554;14.454;2023-06-24T12:33:25;94557.00;;;25.70
41940;BMP180;23057;48.554;14.454;2023-06-24T12:35:55;94553.00;;;25.70
41940;BMP180;23057;48.554;14.454;2023-06-24T12:38:26;94535.00;;;25.80
41940;BMP180;23057;48.554;14.454;2023-06-24T12:40:57;94542.00;;;25.90
41940;BMP180;23057;48.554;14.454;2023-06-24T12:43:28;94543.00;;;26.10
41940;BMP180;23057;48.554;14.454;2023-06-24T12:45:59;94538.00;;;26.20
41940;BMP180;23057;48.554;14.454;2023-06-24T12:48:29;94537.00;;;26.20
41940;BMP180;23057;48.554;14.454;2023-06-24T12:51:00;94533.00;;;26.20
41940;BMP180;23057;48.554;14.454;2023-06-24T12:53:31;94525.00;;;26.10
41940;BMP180;23057;48.554;14.454;2023-06-24T12:56:02;94539.00;;;26.10
41940;BMP180;23057;48.554;14.454;2023-06-24T12:58:33;94539.00;;;26.10
41940;BMP180;23057;48.554;14.454;2023-06-24T13:01:03;94535.00;;;26.10
41940;BMP180;23057;48.554;14.454;2023-06-24T13:03:34;94536.00;;;26.10
41940;BMP180;23057;48.554;14.454;2023-06-24T13:06:05;94533.00;;;26.10
41940;BMP180;23057;48.554;14.454;2023-06-24T13:08:36;94537.00;;;26.20
41940;BMP180;23057;48.554;14.454;2023-06-24T13:11:06;94538.00;;;26.20
41940;BMP180;23057;48.554;14.454;2023-06-24T13:13:37;94536.00;;;26.20
41940;BMP180;23057;48.554;14.454;2023-06-24T13:16:08;94540.00;;;26.30
41940;BMP180;23057;48.554;14.454;2023-06-24T13:18:39;94532.00;;;26.30
41940;BMP180;23057;48.554;14.454;2023-06-24T13:21:09;94530.00;;;26.40
41940;BMP180;23057;48.554;14.454;2023-06-24T13:23:40;94522.00;;;26.60
41940;BMP180;23057;48.554;14.454;2023-06-24T13:26:12;94519.00;;;26.70
41940;BMP180;23057;48.554;14.454;2023-06-24T13:28:42;94526.00;;;26.80
41940;BMP180;23057;48.554;14.454;2023-06-24T13:31:14;94523.00;;;26.90
41940;BMP180;23057;48.554;14.454;2023-06-24T13:33:45;94521.00;;;27.10
41940;BMP180;23057;48.554;14.454;2023-06-24T13:36:45;94516.00;;;27.20
41940;BMP180;23057;48.554;14.454;2023-06-24T13:39:17;94515.00;;;27.10
41940;BMP180;23057;48.554;14.454;2023-06-24T13:41:48;94513.00;;;27.10
41940;BMP180;23057;48.554;14.454;2023-06-24T13:44:20;94524.00;;;27.10
41940;BMP180;23057;48.554;14.454;2023-06-24T13:46:51;94514.00;;;27.00
41940;BMP180;23057;48.554;14.454;2023-06-24T13:49:23;94522.00;;;27.10
41940;BMP180;23057;48.554;14.454;2023-06-24T13:51:54;94514.00;;;27.20
41940;BMP180;23057;48.554;14.454;2023-06-24T13:54:25;94512.00;;;27.40
41940;BMP180;23057;48.554;14.454;2023-06-24T13:56:57;94507.00;;;27.40
41940;BMP180;23057;48.554;14.454;2023-06-24T13:59:28;94511.00;;;27.40
41940;BMP180;23057;48.554;14.454;2023-06-24T14:01:59;94508.00;;;27.30
41940;BMP180;23057;48.554;14.454;2023-06-24T14:04:30;94509.00;;;27.30
41940;BMP180;23057;48.554;14.454;2023-06-24T14:07:01;94494.00;;;27.30
41940;BMP180;23057;48.554;14.454;2023-06-24T14:09:33;94501.00;;;27.40
41940;BMP180;23057;48.554;14.454;2023-06-24T14:12:04;94497.00;;;27.40
41940;BMP180;23057;48.554;14.454;2023-06-24T14:14:36;94496.00;;;27.50
41940;BMP180;23057;48.554;14.454;2023-06-24T14:17:07;94503.00;;;27.70
41940;BMP180;23057;48.554;14.454;2023-06-24T14:19:40;94496.00;;;27.80
41940;BMP180;23057;48.554;14.454;2023-06-24T14:22:11;94494.00;;;27.80
41940;BMP180;23057;48.554;14.454;2023-06-24T14:24:42;94489.00;;;27.70
41940;BMP180;23057;48.554;14.454;2023-06-24T14:27:13;94485.00;;;27.70
41940;BMP180;23057;48.554;14.454;2023-06-24T14:29:44;94483.00;;;27.70
41940;BMP180;23057;48.554;14.454;2023-06-24T14:32:15;94478.00;;;27.80
41940;BMP180;23057;48.554;14.454;2023-06-24T14:34:45;94475.00;;;27.80
41940;BMP180;23057;48.554;14.454;2023-06-24T14:37:16;94473.00;;;27.90